createdAt,value
2022-09-28T00:01:58.857Z,99.90
2022-09-28T00:04:27.730Z,99.90
2022-09-28T00:06:56.337Z,99.90
2022-09-28T00:09:24.972Z,99.90
2022-09-28T00:11:56.358Z,99.90
2022-09-28T00:14:25.564Z,99.90
2022-09-28T00:16:54.049Z,99.90
2022-09-28T00:19:22.358Z,99.90
2022-09-28T00:21:50.732Z,99.90
2022-09-28T00:24:24.059Z,99.90
2022-09-28T00:26:58.078Z,99.90
2022-09-28T00:29:28.167Z,99.90
2022-09-28T00:32:00.181Z,99.90
2022-09-28T00:34:29.957Z,99.90
2022-09-28T00:36:58.882Z,99.90
2022-09-28T00:39:27.699Z,99.90
2022-09-28T00:41:57.556Z,99.90
2022-09-28T00:44:50.452Z,99.90
2022-09-28T00:47:49.989Z,99.90
2022-09-28T00:50:25.450Z,99.90
2022-09-28T00:52:58.999Z,99.90
2022-09-28T00:55:35.906Z,99.90
2022-09-28T00:58:08.974Z,99.90
2022-09-28T01:00:38.133Z,99.90
2022-09-28T01:03:06.711Z,99.90
2022-09-28T01:05:36.000Z,99.90
2022-09-28T01:08:05.818Z,99.90
2022-09-28T01:10:34.752Z,99.90
2022-09-28T01:13:03.373Z,99.90
2022-09-28T01:15:43.048Z,99.90
2022-09-28T01:18:18.563Z,99.90
2022-09-28T01:21:02.475Z,99.90
2022-09-28T01:23:57.349Z,99.90
2022-09-28T01:26:48.815Z,99.90
2022-09-28T01:29:33.174Z,99.90
2022-09-28T01:32:13.923Z,99.90
2022-09-28T01:34:48.942Z,99.90
2022-09-28T01:37:20.937Z,99.90
2022-09-28T01:39:51.372Z,99.90
2022-09-28T01:42:28.464Z,99.90
2022-09-28T01:45:05.123Z,99.90
2022-09-28T01:47:38.297Z,99.90
2022-09-28T01:50:11.296Z,99.90
2022-09-28T01:52:47.913Z,99.90
2022-09-28T01:55:24.759Z,99.90
2022-09-28T01:57:58.654Z,99.90
2022-09-28T02:00:28.511Z,99.90
2022-09-28T02:03:03.483Z,99.90
2022-09-28T02:05:48.779Z,99.90
2022-09-28T02:08:25.054Z,99.90
2022-09-28T02:10:58.991Z,99.90
2022-09-28T02:13:34.167Z,99.90
2022-09-28T02:16:07.502Z,99.90
2022-09-28T02:18:36.584Z,99.90
2022-09-28T02:21:11.186Z,99.90
2022-09-28T02:23:42.671Z,99.90
2022-09-28T02:26:15.617Z,99.90
2022-09-28T02:28:45.645Z,99.90
2022-09-28T02:31:14.744Z,99.90
2022-09-28T02:33:46.034Z,99.90
2022-09-28T02:36:16.083Z,99.90
2022-09-28T02:38:44.577Z,99.90
2022-09-28T02:41:27.963Z,99.90
2022-09-28T02:44:09.827Z,99.90
2022-09-28T02:46:46.917Z,99.90
2022-09-28T02:49:31.461Z,99.90
2022-09-28T02:52:16.736Z,99.90
2022-09-28T02:55:15.900Z,99.90
2022-09-28T02:57:57.141Z,99.90
2022-09-28T03:00:28.115Z,99.90
2022-09-28T03:03:03.795Z,99.90
2022-09-28T03:05:46.541Z,99.90
2022-09-28T03:08:23.394Z,99.90
2022-09-28T03:10:57.874Z,99.90
2022-09-28T03:13:28.133Z,99.90
2022-09-28T03:16:10.104Z,99.90
2022-09-28T03:18:39.219Z,99.90
2022-09-28T03:21:10.827Z,99.90
2022-09-28T03:23:39.602Z,99.90
2022-09-28T03:26:09.854Z,99.90
2022-09-28T03:28:38.602Z,99.90
2022-09-28T03:31:10.920Z,99.90
2022-09-28T03:33:39.920Z,99.90
2022-09-28T03:36:10.380Z,99.90
2022-09-28T03:38:40.389Z,99.90
2022-09-28T03:41:09.685Z,99.90
2022-09-28T03:43:42.080Z,99.90
2022-09-28T03:46:12.780Z,99.90
2022-09-28T03:48:46.407Z,99.90
2022-09-28T03:51:15.378Z,99.90
2022-09-28T03:53:44.070Z,99.90
2022-09-28T03:56:15.291Z,99.90
2022-09-28T03:58:43.919Z,99.90
2022-09-28T04:01:18.016Z,99.90
2022-09-28T04:03:49.278Z,99.90
2022-09-28T04:06:18.132Z,99.90
2022-09-28T04:08:46.544Z,99.90
2022-09-28T04:11:15.320Z,99.90
2022-09-28T04:13:45.376Z,99.90
2022-09-28T04:16:18.610Z,99.90
2022-09-28T04:18:56.267Z,99.90
2022-09-28T04:21:52.182Z,99.90
2022-09-28T04:24:28.197Z,99.90
2022-09-28T04:27:16.885Z,99.90
2022-09-28T04:29:44.724Z,99.90
2022-09-28T04:32:16.897Z,99.90
2022-09-28T04:34:45.597Z,99.90
2022-09-28T04:37:15.085Z,99.90
2022-09-28T04:39:47.596Z,99.90
2022-09-28T04:42:19.633Z,99.90
2022-09-28T04:44:50.477Z,99.90
2022-09-28T04:47:20.674Z,99.90
2022-09-28T04:50:13.441Z,99.90
2022-09-28T04:53:02.666Z,99.90
2022-09-28T04:55:32.680Z,99.90
2022-09-28T04:58:03.137Z,99.90
2022-09-28T05:00:33.354Z,99.90
2022-09-28T05:03:10.948Z,99.90
2022-09-28T05:06:09.341Z,99.90
2022-09-28T05:08:47.031Z,99.90
2022-09-28T05:11:16.394Z,99.90
2022-09-28T05:13:46.746Z,99.90
2022-09-28T05:16:18.093Z,99.90
2022-09-28T05:19:07.491Z,99.90
2022-09-28T05:21:36.128Z,99.90
2022-09-28T05:24:07.839Z,99.90
2022-09-28T05:26:39.000Z,99.90
2022-09-28T05:29:09.435Z,99.90
2022-09-28T05:31:56.649Z,99.90
2022-09-28T05:34:29.925Z,99.90
2022-09-28T05:36:58.535Z,99.90
2022-09-28T05:39:27.172Z,99.90
2022-09-28T05:41:58.019Z,99.90
2022-09-28T05:44:26.708Z,99.90
2022-09-28T05:46:56.503Z,99.90
2022-09-28T05:49:25.002Z,99.90
2022-09-28T05:51:55.224Z,99.90
2022-09-28T05:54:54.410Z,99.90
2022-09-28T05:57:23.206Z,99.90
2022-09-28T05:59:52.389Z,99.90
2022-09-28T06:02:21.338Z,99.90
2022-09-28T06:04:51.494Z,99.90
2022-09-28T06:07:23.273Z,99.90
2022-09-28T06:09:52.092Z,99.90
2022-09-28T06:12:35.606Z,99.90
2022-09-28T06:15:10.232Z,99.90
2022-09-28T06:17:39.045Z,99.90
2022-09-28T06:20:29.727Z,99.90
2022-09-28T06:23:10.978Z,99.90
2022-09-28T06:25:40.384Z,99.90
2022-09-28T06:28:12.237Z,99.90
2022-09-28T06:30:42.217Z,99.90
2022-09-28T06:33:15.487Z,99.90
2022-09-28T06:35:44.372Z,99.90
2022-09-28T06:38:14.575Z,99.90
2022-09-28T06:40:43.508Z,99.90
2022-09-28T06:43:15.635Z,99.90
2022-09-28T06:46:04.245Z,99.90
2022-09-28T06:48:52.616Z,99.90
2022-09-28T06:51:34.596Z,99.90
2022-09-28T06:54:15.036Z,99.90
2022-09-28T06:56:55.494Z,99.90
2022-09-28T06:59:24.393Z,99.90
2022-09-28T07:01:54.020Z,99.90
2022-09-28T07:04:51.698Z,99.90
2022-09-28T07:07:38.958Z,99.90
2022-09-28T07:10:20.751Z,99.90
2022-09-28T07:20:50.267Z,99.90
2022-09-28T07:34:15.133Z,99.90
2022-09-28T07:37:19.044Z,99.90
2022-09-28T07:40:06.621Z,99.90
2022-09-28T07:42:38.539Z,99.90
2022-09-28T07:45:08.975Z,99.90
2022-09-28T07:47:38.445Z,99.90
2022-09-28T07:50:21.554Z,99.90
2022-09-28T07:53:13.386Z,99.90
2022-09-28T07:56:02.435Z,99.90
2022-09-28T07:58:50.649Z,99.90
2022-09-28T08:01:45.584Z,99.90
2022-09-28T08:04:16.281Z,99.90
2022-09-28T08:06:48.989Z,99.90
2022-09-28T08:09:18.116Z,99.90
2022-09-28T08:12:19.830Z,99.90
2022-09-28T08:15:11.897Z,99.90
2022-09-28T08:17:58.014Z,99.90
2022-09-28T08:20:51.648Z,99.90
2022-09-28T08:23:23.648Z,99.90
2022-09-28T08:25:54.460Z,99.90
2022-09-28T08:28:25.658Z,99.90
2022-09-28T08:31:01.620Z,99.90
2022-09-28T08:33:33.475Z,99.90
2022-09-28T08:36:20.951Z,99.90
2022-09-28T08:38:57.006Z,99.90
2022-09-28T08:41:43.051Z,99.90
2022-09-28T08:47:57.099Z,99.90
2022-09-28T08:50:51.695Z,99.90
2022-09-28T08:53:36.953Z,99.90
2022-09-28T08:56:30.819Z,99.90
2022-09-28T08:59:03.621Z,99.90
2022-09-28T09:01:38.783Z,99.90
2022-09-28T09:04:11.326Z,99.90
2022-09-28T09:07:17.218Z,99.90
2022-09-28T09:10:02.169Z,99.90
2022-09-28T09:12:44.169Z,99.90
2022-09-28T09:15:40.736Z,99.90
2022-09-28T09:18:37.450Z,99.90
2022-09-28T09:21:43.032Z,99.90
2022-09-28T09:24:27.368Z,99.90
2022-09-28T09:27:07.133Z,99.90
2022-09-28T09:30:05.136Z,99.90
2022-09-28T09:33:00.689Z,99.90
2022-09-28T09:35:55.484Z,99.90
2022-09-28T09:38:58.253Z,99.90
2022-09-28T09:41:44.145Z,99.90
2022-09-28T09:44:54.129Z,99.90
2022-09-28T09:47:35.877Z,99.90
2022-09-28T09:50:30.292Z,99.90
2022-09-28T09:53:04.096Z,99.90
2022-09-28T09:55:38.929Z,99.90
2022-09-28T09:58:34.328Z,99.90
2022-09-28T10:01:17.268Z,99.90
2022-09-28T10:04:24.889Z,99.90
2022-09-28T10:07:02.978Z,99.90
2022-09-28T10:09:37.679Z,99.90
2022-09-28T10:12:35.817Z,99.90
2022-09-28T10:15:07.800Z,99.90
2022-09-28T10:17:49.176Z,99.90
2022-09-28T10:20:42.490Z,99.90
2022-09-28T10:23:24.245Z,99.90
2022-09-28T10:25:55.586Z,99.90
2022-09-28T10:28:34.441Z,99.90
2022-09-28T10:31:36.346Z,99.90
2022-09-28T10:34:08.524Z,99.90
2022-09-28T10:36:49.177Z,97.30
2022-09-28T10:39:36.442Z,96.30
2022-09-28T10:42:09.305Z,95.60
2022-09-28T10:44:55.467Z,95.70
2022-09-28T10:47:34.460Z,96.30
2022-09-28T10:50:05.067Z,94.00
2022-09-28T10:52:42.064Z,93.60
2022-09-28T10:55:31.319Z,93.90
2022-09-28T10:58:01.375Z,90.40
2022-09-28T11:00:41.905Z,89.30
2022-09-28T11:03:24.767Z,89.40
2022-09-28T11:05:58.579Z,90.60
2022-09-28T11:08:33.020Z,91.80
2022-09-28T11:11:10.054Z,92.50
2022-09-28T11:13:43.941Z,92.90
2022-09-28T11:16:28.677Z,93.50
2022-09-28T11:18:59.141Z,94.20
2022-09-28T11:21:29.910Z,95.10
2022-09-28T11:24:07.723Z,94.20
2022-09-28T11:26:44.426Z,94.60
2022-09-28T11:29:26.783Z,94.30
2022-09-28T11:32:18.936Z,94.20
2022-09-28T11:35:07.077Z,93.80
2022-09-28T11:38:00.404Z,93.50
2022-09-28T11:41:02.451Z,93.20
2022-09-28T11:43:52.291Z,93.90
2022-09-28T11:46:32.041Z,94.20
2022-09-28T11:49:16.465Z,94.00
2022-09-28T11:51:47.365Z,94.30
2022-09-28T11:54:26.830Z,94.20
2022-09-28T11:57:01.049Z,93.70
2022-09-28T11:59:34.857Z,94.00
2022-09-28T12:02:13.186Z,94.60
2022-09-28T12:04:53.136Z,93.60
2022-09-28T12:07:29.105Z,93.00
2022-09-28T12:10:02.491Z,93.30
2022-09-28T12:12:36.970Z,93.00
2022-09-28T12:15:18.189Z,92.50
2022-09-28T12:17:51.280Z,92.60
2022-09-28T12:20:24.313Z,92.20
2022-09-28T12:23:04.095Z,93.10
2022-09-28T12:25:40.531Z,92.80
2022-09-28T12:28:24.318Z,92.40
2022-09-28T12:30:54.801Z,92.50
2022-09-28T12:33:23.601Z,92.80
2022-09-28T12:36:05.219Z,92.50
2022-09-28T12:39:21.704Z,90.80
2022-09-28T12:42:01.151Z,90.30
2022-09-28T12:44:48.602Z,90.00
2022-09-28T12:47:43.092Z,89.70
2022-09-28T12:50:37.971Z,88.80
2022-09-28T12:53:23.730Z,89.30
2022-09-28T12:55:57.814Z,90.00
2022-09-28T12:58:38.140Z,88.80
2022-09-28T13:01:20.777Z,88.50
2022-09-28T13:04:13.353Z,89.30
2022-09-28T13:06:53.679Z,89.90
2022-09-28T13:09:25.310Z,89.70
2022-09-28T13:12:16.156Z,89.40
2022-09-28T13:15:16.251Z,89.60
2022-09-28T13:17:53.877Z,89.40
2022-09-28T13:20:32.669Z,89.80
2022-09-28T13:23:12.646Z,89.20
2022-09-28T13:25:45.626Z,86.30
2022-09-28T13:28:17.021Z,86.10
2022-09-28T13:30:47.285Z,85.40
2022-09-28T13:33:23.276Z,85.00
2022-09-28T13:35:52.025Z,86.40
2022-09-28T13:38:47.486Z,89.80
2022-09-28T13:41:29.850Z,88.80
2022-09-28T13:44:46.436Z,90.90
2022-09-28T13:47:28.566Z,94.40
2022-09-28T13:50:12.025Z,95.60
2022-09-28T13:52:47.697Z,96.10
2022-09-28T13:55:26.390Z,97.50
2022-09-28T13:57:59.207Z,97.90
2022-09-28T14:00:31.857Z,98.90
2022-09-28T14:03:13.337Z,98.60
2022-09-28T14:06:22.564Z,98.00
2022-09-28T14:09:10.849Z,97.00
2022-09-28T14:11:45.495Z,96.50
2022-09-28T14:14:33.273Z,96.80
2022-09-28T14:17:48.450Z,97.30
2022-09-28T14:20:19.170Z,98.10
2022-09-28T14:23:04.308Z,98.00
2022-09-28T14:25:35.099Z,99.20
2022-09-28T14:28:20.171Z,99.80
2022-09-28T14:30:52.080Z,99.90
2022-09-28T14:33:30.109Z,99.90
2022-09-28T14:36:02.553Z,99.90
2022-09-28T14:38:55.042Z,99.90
2022-09-28T14:41:31.667Z,99.90
2022-09-28T14:44:06.942Z,99.90
2022-09-28T14:46:45.137Z,99.90
2022-09-28T14:49:58.608Z,99.90
2022-09-28T14:52:46.703Z,99.90
2022-09-28T14:55:28.153Z,99.90
2022-09-28T14:58:06.205Z,99.90
2022-09-28T15:00:35.844Z,99.90
2022-09-28T15:03:11.515Z,99.90
2022-09-28T15:05:47.288Z,99.90
2022-09-28T15:08:18.804Z,99.90
2022-09-28T15:10:50.564Z,99.90
2022-09-28T15:13:25.782Z,99.90
2022-09-28T15:15:59.635Z,99.90
2022-09-28T15:18:47.762Z,99.90
2022-09-28T15:21:17.147Z,99.90
2022-09-28T15:23:47.313Z,99.90
2022-09-28T15:52:59.698Z,99.90
2022-09-28T15:55:34.064Z,99.90
2022-09-28T15:58:32.594Z,99.90
2022-09-28T16:01:36.654Z,99.90
2022-09-28T16:04:39.245Z,99.90
2022-09-28T16:07:31.762Z,99.90
2022-09-28T16:10:10.301Z,99.90
2022-09-28T16:12:55.962Z,99.90
2022-09-28T16:18:54.300Z,99.90
2022-09-28T16:22:08.550Z,99.90
2022-09-28T17:14:22.289Z,99.90
2022-09-28T17:18:05.549Z,99.90
2022-09-28T17:21:11.175Z,99.90
2022-09-28T17:24:01.041Z,99.90
2022-09-28T17:26:58.192Z,99.90
2022-09-28T17:29:56.273Z,99.90
2022-09-28T17:32:58.631Z,99.90
2022-09-28T17:36:31.592Z,99.90
2022-09-28T17:39:41.112Z,99.90
2022-09-28T17:54:31.985Z,99.90
2022-09-28T19:29:16.374Z,99.90
2022-09-28T19:31:59.901Z,99.90
2022-09-28T19:34:47.261Z,99.90
2022-09-28T19:37:26.676Z,99.90
2022-09-28T19:40:04.978Z,99.90
2022-09-28T19:42:39.443Z,99.90
2022-09-28T19:45:28.076Z,99.90
2022-09-28T19:48:15.562Z,99.90
2022-09-28T19:51:18.963Z,99.90
2022-09-28T19:54:01.633Z,99.90
2022-09-28T19:56:39.779Z,99.90
2022-09-28T19:59:14.967Z,99.90
2022-09-28T20:01:54.425Z,99.90
2022-09-28T20:04:28.234Z,99.90
2022-09-28T20:07:14.510Z,99.90
2022-09-28T20:10:04.849Z,99.90
2022-09-28T20:13:17.193Z,99.90
2022-09-28T20:15:50.465Z,99.90
2022-09-28T20:21:26.930Z,99.90
2022-09-28T20:23:56.463Z,99.90
2022-09-28T20:26:27.175Z,99.90
2022-09-28T20:28:57.158Z,99.90
2022-09-28T20:31:26.755Z,99.90
2022-09-28T20:33:57.802Z,99.90
2022-09-28T20:36:27.165Z,99.90
2022-09-28T20:39:01.952Z,99.90
2022-09-28T20:41:37.002Z,99.90
2022-09-28T20:44:07.325Z,99.90
2022-09-28T20:46:36.540Z,99.90
2022-09-28T20:49:07.947Z,99.90
2022-09-28T20:51:36.682Z,99.90
2022-09-28T20:54:05.548Z,99.90
2022-09-28T20:56:38.159Z,99.90
2022-09-28T20:59:09.219Z,99.90
2022-09-28T21:01:38.818Z,99.90
2022-09-28T21:04:10.397Z,99.90
2022-09-28T21:06:41.434Z,99.90
2022-09-28T21:09:11.744Z,99.90
2022-09-28T21:11:40.407Z,99.90
2022-09-28T21:14:10.010Z,99.90
2022-09-28T21:16:39.116Z,99.90
2022-09-28T21:19:08.999Z,99.90
2022-09-28T21:21:37.557Z,99.90
2022-09-28T21:24:06.428Z,99.90
2022-09-28T21:26:35.435Z,99.90
2022-09-28T21:29:06.575Z,99.90
2022-09-28T21:31:41.796Z,99.90
2022-09-28T21:34:14.569Z,99.90
2022-09-28T21:36:43.631Z,99.90
2022-09-28T21:39:12.275Z,99.90
2022-09-28T21:41:41.493Z,99.90
2022-09-28T21:44:10.455Z,99.90
2022-09-28T21:46:40.061Z,99.90
2022-09-28T21:49:09.631Z,99.90
2022-09-28T21:51:39.725Z,99.90
2022-09-28T21:54:08.716Z,99.90
2022-09-28T21:56:37.431Z,99.90
2022-09-28T21:59:06.303Z,99.90
2022-09-28T22:01:34.929Z,99.90
2022-09-28T22:04:03.414Z,99.90
2022-09-28T22:06:32.010Z,99.90
2022-09-28T22:09:02.191Z,99.90
2022-09-28T22:11:31.031Z,99.90
2022-09-28T22:14:01.090Z,99.90
2022-09-28T22:16:31.865Z,99.90
2022-09-28T22:19:01.198Z,99.90
2022-09-28T22:21:32.000Z,99.90
2022-09-28T22:24:03.653Z,99.90
2022-09-28T22:26:34.401Z,99.90
2022-09-28T22:29:05.368Z,99.90
2022-09-28T22:31:35.828Z,99.90
2022-09-28T22:34:05.168Z,99.90
2022-09-28T22:36:34.093Z,99.90
2022-09-28T22:39:04.693Z,99.90
2022-09-28T22:41:33.705Z,99.90
2022-09-28T22:44:02.551Z,99.90
2022-09-28T22:46:32.742Z,99.90
2022-09-28T22:49:02.308Z,99.90
2022-09-28T22:51:31.943Z,99.90
2022-09-28T22:54:01.740Z,99.90
2022-09-28T22:56:32.169Z,99.90
2022-09-28T22:59:00.939Z,99.90
2022-09-28T23:01:30.709Z,99.90
2022-09-28T23:03:59.755Z,99.90
2022-09-28T23:06:30.926Z,99.90
2022-09-28T23:08:59.918Z,99.90
2022-09-28T23:11:29.353Z,99.90
2022-09-28T23:14:00.702Z,99.90
2022-09-28T23:16:30.284Z,99.90
2022-09-28T23:18:59.218Z,99.90
2022-09-28T23:21:29.726Z,99.90
2022-09-28T23:24:01.132Z,99.90
2022-09-28T23:26:31.552Z,99.90
2022-09-28T23:29:01.870Z,99.90
2022-09-28T23:31:32.537Z,99.90
2022-09-28T23:34:02.513Z,99.90
2022-09-28T23:36:31.243Z,99.90
2022-09-28T23:39:00.062Z,99.90
2022-09-28T23:41:28.776Z,99.90
2022-09-28T23:43:57.495Z,99.90
2022-09-28T23:46:27.520Z,99.90
2022-09-28T23:48:57.314Z,99.90
2022-09-28T23:51:26.025Z,99.90
2022-09-28T23:53:54.728Z,99.90
2022-09-28T23:56:23.365Z,99.90
2022-09-28T23:58:51.923Z,99.90
